sensor_id;sensor_type;location;lat;lon;timestamp;temperature;humidity
63407;SHT31;49543;45.892;10.838;2023-09-30T07:07:58;22.20;75.32
63407;SHT31;49543;45.892;10.838;2023-09-30T07:10:24;22.30;75.08
63407;SHT31;49543;45.892;10.838;2023-09-30T07:12:50;22.21;74.28
63407;SHT31;49543;45.892;10.838;2023-09-30T07:15:15;22.30;74.58
63407;SHT31;49543;45.892;10.838;2023-09-30T07:17:41;22.39;74.63
63407;SHT31;49543;45.892;10.838;2023-09-30T07:20:07;22.45;74.30
63407;SHT31;49543;45.892;10.838;2023-09-30T07:22:37;22.55;73.93
63407;SHT31;49543;45.892;10.838;2023-09-30T07:25:04;22.64;73.82
63407;SHT31;49543;45.892;10.838;2023-09-30T07:27:29;22.75;74.02
63407;SHT31;49543;45.892;10.838;2023-09-30T07:29:55;22.87;74.27
63407;SHT31;49543;45.892;10.838;2023-09-30T07:32:21;23.00;73.98
63407;SHT31;49543;45.892;10.838;2023-09-30T07:34:49;23.15;73.74
63407;SHT31;49543;45.892;10.838;2023-09-30T07:37:14;23.24;73.69
63407;SHT31;49543;45.892;10.838;2023-09-30T07:39:40;23.33;73.03
63407;SHT31;49543;45.892;10.838;2023-09-30T07:42:08;23.40;72.58
63407;SHT31;49543;45.892;10.838;2023-09-30T07:44:34;23.44;72.72
63407;SHT31;49543;45.892;10.838;2023-09-30T07:47:05;23.54;72.08
63407;SHT31;49543;45.892;10.838;2023-09-30T07:49:38;23.61;71.95
63407;SHT31;49543;45.892;10.838;2023-09-30T07:52:03;23.70;72.41
63407;SHT31;49543;45.892;10.838;2023-09-30T07:54:29;23.75;72.49
63407;SHT31;49543;45.892;10.838;2023-09-30T07:56:55;23.85;72.35
63407;SHT31;49543;45.892;10.838;2023-09-30T07:59:20;23.99;71.99
63407;SHT31;49543;45.892;10.838;2023-09-30T08:01:47;24.05;72.22
63407;SHT31;49543;45.892;10.838;2023-09-30T09:52:11;28.34;62.62
63407;SHT31;49543;45.892;10.838;2023-09-30T09:54:38;28.40;61.59
63407;SHT31;49543;45.892;10.838;2023-09-30T09:57:05;28.43;61.40
63407;SHT31;49543;45.892;10.838;2023-09-30T09:59:34;28.49;61.69
63407;SHT31;49543;45.892;10.838;2023-09-30T10:02:00;28.65;61.76
63407;SHT31;49543;45.892;10.838;2023-09-30T10:04:25;28.83;61.21
63407;SHT31;49543;45.892;10.838;2023-09-30T10:06:53;28.96;60.25
63407;SHT31;49543;45.892;10.838;2023-09-30T10:09:21;29.10;60.14
63407;SHT31;49543;45.892;10.838;2023-09-30T10:11:47;29.17;59.70
63407;SHT31;49543;45.892;10.838;2023-09-30T10:14:32;29.19;59.24
63407;SHT31;49543;45.892;10.838;2023-09-30T10:17:03;29.30;59.73
63407;SHT31;49543;45.892;10.838;2023-09-30T10:19:29;29.44;59.61
63407;SHT31;49543;45.892;10.838;2023-09-30T10:24:51;29.84;58.98
63407;SHT31;49543;45.892;10.838;2023-09-30T10:40:55;29.99;57.72
63407;SHT31;49543;45.892;10.838;2023-09-30T10:43:40;30.23;57.53
63407;SHT31;49543;45.892;10.838;2023-09-30T10:48:54;30.50;55.79
63407;SHT31;49543;45.892;10.838;2023-09-30T10:51:20;30.08;55.84
63407;SHT31;49543;45.892;10.838;2023-09-30T10:53:54;30.02;56.30
63407;SHT31;49543;45.892;10.838;2023-09-30T10:56:32;29.95;57.23
63407;SHT31;49543;45.892;10.838;2023-09-30T10:58:57;29.90;56.89
63407;SHT31;49543;45.892;10.838;2023-09-30T11:01:24;30.05;55.86
63407;SHT31;49543;45.892;10.838;2023-09-30T11:03:58;30.24;56.63
63407;SHT31;49543;45.892;10.838;2023-09-30T11:06:24;30.41;55.88
63407;SHT31;49543;45.892;10.838;2023-09-30T11:08:57;30.63;55.28
63407;SHT31;49543;45.892;10.838;2023-09-30T11:14:26;30.95;54.96
63407;SHT31;49543;45.892;10.838;2023-09-30T11:16:54;30.88;54.68
63407;SHT31;49543;45.892;10.838;2023-09-30T11:19:21;30.64;56.01
63407;SHT31;49543;45.892;10.838;2023-09-30T11:21:52;30.31;56.50
63407;SHT31;49543;45.892;10.838;2023-09-30T11:24:18;29.99;57.30
63407;SHT31;49543;45.892;10.838;2023-09-30T11:26:44;29.79;57.51
63407;SHT31;49543;45.892;10.838;2023-09-30T11:29:12;29.76;58.17
63407;SHT31;49543;45.892;10.838;2023-09-30T11:31:45;29.81;57.90
63407;SHT31;49543;45.892;10.838;2023-09-30T11:34:12;29.76;58.09
63407;SHT31;49543;45.892;10.838;2023-09-30T11:36:39;29.92;57.33
63407;SHT31;49543;45.892;10.838;2023-09-30T11:39:08;30.02;57.13
63407;SHT31;49543;45.892;10.838;2023-09-30T11:41:35;30.01;56.85
63407;SHT31;49543;45.892;10.838;2023-09-30T11:44:04;30.14;57.36
63407;SHT31;49543;45.892;10.838;2023-09-30T11:46:31;30.22;56.37
63407;SHT31;49543;45.892;10.838;2023-09-30T11:49:03;30.26;57.01
63407;SHT31;49543;45.892;10.838;2023-09-30T11:51:34;30.30;55.90
63407;SHT31;49543;45.892;10.838;2023-09-30T11:54:08;30.34;56.47
63407;SHT31;49543;45.892;10.838;2023-09-30T11:56:36;30.36;55.81
63407;SHT31;49543;45.892;10.838;2023-09-30T11:59:02;30.37;56.48
63407;SHT31;49543;45.892;10.838;2023-09-30T12:01:27;30.16;56.55
63407;SHT31;49543;45.892;10.838;2023-09-30T12:03:56;30.13;56.99
63407;SHT31;49543;45.892;10.838;2023-09-30T12:06:22;30.17;57.00
63407;SHT31;49543;45.892;10.838;2023-09-30T12:08:48;30.22;57.83
63407;SHT31;49543;45.892;10.838;2023-09-30T12:11:13;30.22;58.07
63407;SHT31;49543;45.892;10.838;2023-09-30T12:13:41;30.19;58.95
63407;SHT31;49543;45.892;10.838;2023-09-30T12:16:07;30.02;59.58
63407;SHT31;49543;45.892;10.838;2023-09-30T12:18:32;30.08;59.09
63407;SHT31;49543;45.892;10.838;2023-09-30T12:20:57;30.08;58.88
63407;SHT31;49543;45.892;10.838;2023-09-30T12:23:24;30.24;58.28
63407;SHT31;49543;45.892;10.838;2023-09-30T12:25:49;30.23;57.51
63407;SHT31;49543;45.892;10.838;2023-09-30T12:28:15;30.31;57.90
63407;SHT31;49543;45.892;10.838;2023-09-30T12:30:43;30.45;57.24
63407;SHT31;49543;45.892;10.838;2023-09-30T12:33:09;30.75;57.28
63407;SHT31;49543;45.892;10.838;2023-09-30T12:35:35;30.96;56.72
63407;SHT31;49543;45.892;10.838;2023-09-30T12:38:01;30.99;54.83
63407;SHT31;49543;45.892;10.838;2023-09-30T12:40:27;30.89;54.76
63407;SHT31;49543;45.892;10.838;2023-09-30T12:42:53;30.54;55.07
63407;SHT31;49543;45.892;10.838;2023-09-30T12:45:18;30.82;56.07
63407;SHT31;49543;45.892;10.838;2023-09-30T12:47:44;31.05;55.56
63407;SHT31;49543;45.892;10.838;2023-09-30T12:50:12;31.23;54.75
63407;SHT31;49543;45.892;10.838;2023-09-30T12:52:38;31.57;53.89
63407;SHT31;49543;45.892;10.838;2023-09-30T12:55:05;31.97;53.80
63407;SHT31;49543;45.892;10.838;2023-09-30T12:57:31;32.29;54.38
63407;SHT31;49543;45.892;10.838;2023-09-30T12:59:56;32.48;54.41
63407;SHT31;49543;45.892;10.838;2023-09-30T13:02:22;32.37;54.59
63407;SHT31;49543;45.892;10.838;2023-09-30T13:04:49;32.09;54.40
63407;SHT31;49543;45.892;10.838;2023-09-30T13:07:14;31.76;56.80
63407;SHT31;49543;45.892;10.838;2023-09-30T13:09:41;31.36;58.54
63407;SHT31;49543;45.892;10.838;2023-09-30T13:12:07;30.89;59.22
63407;SHT31;49543;45.892;10.838;2023-09-30T13:14:33;30.43;59.90
63407;SHT31;49543;45.892;10.838;2023-09-30T13:16:59;29.90;60.10
63407;SHT31;49543;45.892;10.838;2023-09-30T13:19:25;29.51;61.10
63407;SHT31;49543;45.892;10.838;2023-09-30T13:21:50;29.27;61.92
63407;SHT31;49543;45.892;10.838;2023-09-30T13:24:21;28.99;62.46
63407;SHT31;49543;45.892;10.838;2023-09-30T13:26:47;28.79;63.07
63407;SHT31;49543;45.892;10.838;2023-09-30T13:29:14;28.55;64.37
63407;SHT31;49543;45.892;10.838;2023-09-30T13:31:42;28.40;65.27
63407;SHT31;49543;45.892;10.838;2023-09-30T13:34:08;28.22;65.97
63407;SHT31;49543;45.892;10.838;2023-09-30T13:36:34;28.08;66.24
63407;SHT31;49543;45.892;10.838;2023-09-30T13:39:00;27.99;66.60
63407;SHT31;49543;45.892;10.838;2023-09-30T13:41:26;27.92;66.96
63407;SHT31;49543;45.892;10.838;2023-09-30T13:43:52;27.86;65.21
63407;SHT31;49543;45.892;10.838;2023-09-30T13:46:18;27.79;65.64
63407;SHT31;49543;45.892;10.838;2023-09-30T13:48:43;27.74;66.39
63407;SHT31;49543;45.892;10.838;2023-09-30T13:51:09;27.66;66.40
63407;SHT31;49543;45.892;10.838;2023-09-30T13:53:36;27.63;66.40
63407;SHT31;49543;45.892;10.838;2023-09-30T13:56:01;27.61;66.27
63407;SHT31;49543;45.892;10.838;2023-09-30T13:58:29;27.61;66.07
63407;SHT31;49543;45.892;10.838;2023-09-30T14:00:54;27.52;65.52
63407;SHT31;49543;45.892;10.838;2023-09-30T14:03:22;27.46;65.50
63407;SHT31;49543;45.892;10.838;2023-09-30T14:05:50;27.41;65.61
63407;SHT31;49543;45.892;10.838;2023-09-30T14:08:15;27.44;66.08
63407;SHT31;49543;45.892;10.838;2023-09-30T14:10:42;27.32;66.70
63407;SHT31;49543;45.892;10.838;2023-09-30T14:13:10;27.25;66.81
63407;SHT31;49543;45.892;10.838;2023-09-30T14:15:35;27.24;66.60
63407;SHT31;49543;45.892;10.838;2023-09-30T14:18:02;27.23;66.54
63407;SHT31;49543;45.892;10.838;2023-09-30T14:20:27;27.15;67.01
63407;SHT31;49543;45.892;10.838;2023-09-30T14:22:53;27.07;67.02
63407;SHT31;49543;45.892;10.838;2023-09-30T14:25:21;27.00;67.22
63407;SHT31;49543;45.892;10.838;2023-09-30T14:27:47;27.00;67.44
63407;SHT31;49543;45.892;10.838;2023-09-30T14:30:13;26.88;67.16
63407;SHT31;49543;45.892;10.838;2023-09-30T14:32:39;26.87;67.98
63407;SHT31;49543;45.892;10.838;2023-09-30T14:35:05;26.79;68.51
63407;SHT31;49543;45.892;10.838;2023-09-30T14:37:31;26.75;68.86
63407;SHT31;49543;45.892;10.838;2023-09-30T14:39:57;26.61;68.86
63407;SHT31;49543;45.892;10.838;2023-09-30T14:42:22;26.59;67.85
63407;SHT31;49543;45.892;10.838;2023-09-30T14:44:48;26.59;68.56
63407;SHT31;49543;45.892;10.838;2023-09-30T14:47:13;26.46;69.21
63407;SHT31;49543;45.892;10.838;2023-09-30T14:49:40;26.39;69.54
63407;SHT31;49543;45.892;10.838;2023-09-30T14:52:06;26.28;69.47
63407;SHT31;49543;45.892;10.838;2023-09-30T14:54:31;26.26;69.52
63407;SHT31;49543;45.892;10.838;2023-09-30T14:56:57;26.18;70.28
63407;SHT31;49543;45.892;10.838;2023-09-30T14:59:23;26.11;70.41
63407;SHT31;49543;45.892;10.838;2023-09-30T15:01:49;26.09;70.36
63407;SHT31;49543;45.892;10.838;2023-09-30T15:04:14;26.11;69.94
63407;SHT31;49543;45.892;10.838;2023-09-30T15:06:41;26.11;68.78
63407;SHT31;49543;45.892;10.838;2023-09-30T15:09:07;26.14;68.18
63407;SHT31;49543;45.892;10.838;2023-09-30T15:11:35;26.15;68.01
63407;SHT31;49543;45.892;10.838;2023-09-30T15:14:00;26.12;68.63
63407;SHT31;49543;45.892;10.838;2023-09-30T15:16:26;26.09;69.01
63407;SHT31;49543;45.892;10.838;2023-09-30T15:18:51;26.04;69.54
63407;SHT31;49543;45.892;10.838;2023-09-30T17:17:22;24.36;64.38
63407;SHT31;49543;45.892;10.838;2023-09-30T17:19:48;24.35;65.71
63407;SHT31;49543;45.892;10.838;2023-09-30T17:22:13;24.32;65.22
63407;SHT31;49543;45.892;10.838;2023-09-30T17:24:39;24.30;66.11
63407;SHT31;49543;45.892;10.838;2023-09-30T17:27:06;24.27;65.90
63407;SHT31;49543;45.892;10.838;2023-09-30T17:29:34;24.26;64.12
63407;SHT31;49543;45.892;10.838;2023-09-30T17:32:00;24.23;63.17
63407;SHT31;49543;45.892;10.838;2023-09-30T17:34:29;24.29;64.93
63407;SHT31;49543;45.892;10.838;2023-09-30T17:36:54;24.26;63.07
63407;SHT31;49543;45.892;10.838;2023-09-30T17:39:20;24.29;62.85
63407;SHT31;49543;45.892;10.838;2023-09-30T17:41:46;24.33;64.08
63407;SHT31;49543;45.892;10.838;2023-09-30T17:44:12;24.30;65.25
63407;SHT31;49543;45.892;10.838;2023-09-30T17:46:38;24.23;65.03
63407;SHT31;49543;45.892;10.838;2023-09-30T17:49:04;24.16;65.22
63407;SHT31;49543;45.892;10.838;2023-09-30T17:51:29;24.09;65.66
63407;SHT31;49543;45.892;10.838;2023-09-30T17:53:56;24.04;66.00
63407;SHT31;49543;45.892;10.838;2023-09-30T17:56:23;23.98;66.23
63407;SHT31;49543;45.892;10.838;2023-09-30T17:58:51;23.91;66.36
63407;SHT31;49543;45.892;10.838;2023-09-30T18:01:18;23.82;66.32
63407;SHT31;49543;45.892;10.838;2023-09-30T18:03:48;23.74;66.51
63407;SHT31;49543;45.892;10.838;2023-09-30T18:06:14;23.70;66.40
63407;SHT31;49543;45.892;10.838;2023-09-30T18:08:41;23.60;66.83
63407;SHT31;49543;45.892;10.838;2023-09-30T18:11:07;23.54;66.86
63407;SHT31;49543;45.892;10.838;2023-09-30T18:13:37;23.46;67.96
63407;SHT31;49543;45.892;10.838;2023-09-30T18:16:07;23.37;67.83
63407;SHT31;49543;45.892;10.838;2023-09-30T18:18:34;23.33;67.99
63407;SHT31;49543;45.892;10.838;2023-09-30T18:21:00;23.30;68.18
63407;SHT31;49543;45.892;10.838;2023-09-30T18:23:27;23.23;67.64
63407;SHT31;49543;45.892;10.838;2023-09-30T18:25:52;23.20;68.20
63407;SHT31;49543;45.892;10.838;2023-09-30T18:28:18;23.19;67.19
63407;SHT31;49543;45.892;10.838;2023-09-30T18:30:44;23.20;66.92
63407;SHT31;49543;45.892;10.838;2023-09-30T18:33:11;23.06;67.59
63407;SHT31;49543;45.892;10.838;2023-09-30T18:35:41;23.06;67.51
63407;SHT31;49543;45.892;10.838;2023-09-30T18:38:07;23.07;67.50
63407;SHT31;49543;45.892;10.838;2023-09-30T18:40:34;23.03;67.91
63407;SHT31;49543;45.892;10.838;2023-09-30T18:43:03;22.92;68.63
63407;SHT31;49543;45.892;10.838;2023-09-30T18:45:28;22.87;69.09
63407;SHT31;49543;45.892;10.838;2023-09-30T18:47:54;22.84;69.72
63407;SHT31;49543;45.892;10.838;2023-09-30T18:50:21;22.79;70.09
63407;SHT31;49543;45.892;10.838;2023-09-30T18:52:46;22.78;69.78
63407;SHT31;49543;45.892;10.838;2023-09-30T18:55:12;22.72;69.37
63407;SHT31;49543;45.892;10.838;2023-09-30T18:57:38;22.73;69.20
63407;SHT31;49543;45.892;10.838;2023-09-30T19:00:04;22.68;69.83
63407;SHT31;49543;45.892;10.838;2023-09-30T19:02:31;22.67;69.29
63407;SHT31;49543;45.892;10.838;2023-09-30T19:04:58;22.62;69.11
63407;SHT31;49543;45.892;10.838;2023-09-30T19:07:23;22.57;69.35
63407;SHT31;49543;45.892;10.838;2023-09-30T19:09:49;22.52;69.49
63407;SHT31;49543;45.892;10.838;2023-09-30T19:12:14;22.52;69.23
63407;SHT31;49543;45.892;10.838;2023-09-30T19:14:40;22.48;69.44
63407;SHT31;49543;45.892;10.838;2023-09-30T19:17:05;22.39;68.80
63407;SHT31;49543;45.892;10.838;2023-09-30T19:19:32;22.30;69.66
63407;SHT31;49543;45.892;10.838;2023-09-30T19:21:58;22.27;70.14
63407;SHT31;49543;45.892;10.838;2023-09-30T19:24:24;22.18;70.29
63407;SHT31;49543;45.892;10.838;2023-09-30T19:26:49;22.13;69.65
63407;SHT31;49543;45.892;10.838;2023-09-30T19:29:14;22.09;69.83
63407;SHT31;49543;45.892;10.838;2023-09-30T19:31:40;22.13;70.79
63407;SHT31;49543;45.892;10.838;2023-09-30T19:34:05;22.10;70.74
63407;SHT31;49543;45.892;10.838;2023-09-30T19:36:31;21.90;69.76
63407;SHT31;49543;45.892;10.838;2023-09-30T19:38:57;21.86;70.16
63407;SHT31;49543;45.892;10.838;2023-09-30T19:41:22;21.85;70.98
63407;SHT31;49543;45.892;10.838;2023-09-30T19:43:48;21.89;71.35
63407;SHT31;49543;45.892;10.838;2023-09-30T19:46:13;21.97;71.56
63407;SHT31;49543;45.892;10.838;2023-09-30T19:48:39;22.02;70.04
63407;SHT31;49543;45.892;10.838;2023-09-30T19:51:05;22.09;70.37
63407;SHT31;49543;45.892;10.838;2023-09-30T19:53:31;22.06;70.20
63407;SHT31;49543;45.892;10.838;2023-09-30T19:56:06;22.07;70.24
63407;SHT31;49543;45.892;10.838;2023-09-30T19:58:33;22.05;70.67
63407;SHT31;49543;45.892;10.838;2023-09-30T20:00:58;22.00;70.79
63407;SHT31;49543;45.892;10.838;2023-09-30T20:03:30;21.96;69.68
63407;SHT31;49543;45.892;10.838;2023-09-30T20:05:55;21.92;69.50
63407;SHT31;49543;45.892;10.838;2023-09-30T20:08:21;21.86;69.85
63407;SHT31;49543;45.892;10.838;2023-09-30T20:10:46;21.85;70.12
63407;SHT31;49543;45.892;10.838;2023-09-30T20:13:12;21.76;70.04
63407;SHT31;49543;45.892;10.838;2023-09-30T20:15:37;21.78;69.89
63407;SHT31;49543;45.892;10.838;2023-09-30T20:18:03;21.76;70.38
63407;SHT31;49543;45.892;10.838;2023-09-30T20:20:28;21.75;70.38
63407;SHT31;49543;45.892;10.838;2023-09-30T20:22:55;21.75;70.12
63407;SHT31;49543;45.892;10.838;2023-09-30T20:25:20;21.75;69.81
63407;SHT31;49543;45.892;10.838;2023-09-30T20:27:46;21.71;69.99
63407;SHT31;49543;45.892;10.838;2023-09-30T20:30:12;21.68;70.30
63407;SHT31;49543;45.892;10.838;2023-09-30T20:32:38;21.68;70.62
63407;SHT31;49543;45.892;10.838;2023-09-30T20:35:04;21.65;70.62
63407;SHT31;49543;45.892;10.838;2023-09-30T20:37:31;21.63;70.13
63407;SHT31;49543;45.892;10.838;2023-09-30T20:39:57;21.61;71.14
63407;SHT31;49543;45.892;10.838;2023-09-30T20:42:23;21.59;70.88
63407;SHT31;49543;45.892;10.838;2023-09-30T20:44:48;21.55;70.58
63407;SHT31;49543;45.892;10.838;2023-09-30T20:47:15;21.57;71.01
63407;SHT31;49543;45.892;10.838;2023-09-30T20:49:40;21.54;71.05
63407;SHT31;49543;45.892;10.838;2023-09-30T20:52:06;21.57;71.36
63407;SHT31;49543;45.892;10.838;2023-09-30T20:54:32;21.49;70.10
63407;SHT31;49543;45.892;10.838;2023-09-30T20:56:58;21.45;70.53
63407;SHT31;49543;45.892;10.838;2023-09-30T20:59:25;21.45;70.78
63407;SHT31;49543;45.892;10.838;2023-09-30T21:01:51;21.48;70.98
63407;SHT31;49543;45.892;10.838;2023-09-30T21:04:16;21.51;70.44
63407;SHT31;49543;45.892;10.838;2023-09-30T21:06:43;21.45;70.82
63407;SHT31;49543;45.892;10.838;2023-09-30T21:09:12;21.42;70.80
63407;SHT31;49543;45.892;10.838;2023-09-30T21:11:39;21.44;71.56
63407;SHT31;49543;45.892;10.838;2023-09-30T21:14:05;21.37;70.85
63407;SHT31;49543;45.892;10.838;2023-09-30T21:16:31;21.37;70.98
63407;SHT31;49543;45.892;10.838;2023-09-30T21:18:58;21.31;70.46
63407;SHT31;49543;45.892;10.838;2023-09-30T21:21:23;21.30;71.13
63407;SHT31;49543;45.892;10.838;2023-09-30T21:23:49;21.30;71.11
63407;SHT31;49543;45.892;10.838;2023-09-30T21:26:14;21.28;70.95
63407;SHT31;49543;45.892;10.838;2023-09-30T21:28:41;21.28;70.86
63407;SHT31;49543;45.892;10.838;2023-09-30T21:31:17;21.23;71.20
63407;SHT31;49543;45.892;10.838;2023-09-30T21:33:44;21.20;71.16
63407;SHT31;49543;45.892;10.838;2023-09-30T21:36:10;21.17;71.78
63407;SHT31;49543;45.892;10.838;2023-09-30T21:38:36;21.19;71.70
63407;SHT31;49543;45.892;10.838;2023-09-30T21:41:02;21.17;71.97
63407;SHT31;49543;45.892;10.838;2023-09-30T21:43:28;21.13;71.79
63407;SHT31;49543;45.892;10.838;2023-09-30T21:45:53;21.10;71.25
63407;SHT31;49543;45.892;10.838;2023-09-30T21:48:19;21.08;71.60
63407;SHT31;49543;45.892;10.838;2023-09-30T21:50:44;21.06;72.51
63407;SHT31;49543;45.892;10.838;2023-09-30T21:53:09;21.03;72.46
63407;SHT31;49543;45.892;10.838;2023-09-30T21:55:35;20.97;72.49
63407;SHT31;49543;45.892;10.838;2023-09-30T21:58:01;20.97;72.20
63407;SHT31;49543;45.892;10.838;2023-09-30T22:08:12;20.79;71.89
63407;SHT31;49543;45.892;10.838;2023-09-30T22:10:39;20.76;71.34
63407;SHT31;49543;45.892;10.838;2023-09-30T22:13:04;20.80;72.01
63407;SHT31;49543;45.892;10.838;2023-09-30T22:15:30;20.76;72.09
63407;SHT31;49543;45.892;10.838;2023-09-30T22:17:58;20.76;72.86
63407;SHT31;49543;45.892;10.838;2023-09-30T22:20:23;20.77;72.15
63407;SHT31;49543;45.892;10.838;2023-09-30T22:22:49;20.75;72.36
63407;SHT31;49543;45.892;10.838;2023-09-30T22:25:16;20.68;72.35
63407;SHT31;49543;45.892;10.838;2023-09-30T22:27:41;20.69;72.47
63407;SHT31;49543;45.892;10.838;2023-09-30T22:30:08;20.69;72.32
63407;SHT31;49543;45.892;10.838;2023-09-30T22:32:34;20.69;73.22
63407;SHT31;49543;45.892;10.838;2023-09-30T22:34:59;20.68;73.84
63407;SHT31;49543;45.892;10.838;2023-09-30T22:37:25;20.64;73.52
63407;SHT31;49543;45.892;10.838;2023-09-30T22:39:51;20.65;73.30
63407;SHT31;49543;45.892;10.838;2023-09-30T22:42:16;20.59;73.12
63407;SHT31;49543;45.892;10.838;2023-09-30T22:44:43;20.62;73.78
63407;SHT31;49543;45.892;10.838;2023-09-30T22:47:09;20.64;73.93
63407;SHT31;49543;45.892;10.838;2023-09-30T22:49:34;20.65;74.44
63407;SHT31;49543;45.892;10.838;2023-09-30T22:52:00;20.62;74.32
63407;SHT31;49543;45.892;10.838;2023-09-30T22:54:25;20.62;74.41
63407;SHT31;49543;45.892;10.838;2023-09-30T22:56:53;20.56;74.24
63407;SHT31;49543;45.892;10.838;2023-09-30T22:59:20;20.52;74.60
63407;SHT31;49543;45.892;10.838;2023-09-30T23:01:45;20.51;74.87
63407;SHT31;49543;45.892;10.838;2023-09-30T23:04:12;20.51;74.78
63407;SHT31;49543;45.892;10.838;2023-09-30T23:06:38;20.47;75.06
63407;SHT31;49543;45.892;10.838;2023-09-30T23:09:08;20.45;75.15
63407;SHT31;49543;45.892;10.838;2023-09-30T23:11:36;20.45;75.30
63407;SHT31;49543;45.892;10.838;2023-09-30T23:14:04;20.42;75.05
63407;SHT31;49543;45.892;10.838;2023-09-30T23:16:29;20.35;74.83
63407;SHT31;49543;45.892;10.838;2023-09-30T23:18:55;20.38;74.85
63407;SHT31;49543;45.892;10.838;2023-09-30T23:21:29;20.29;74.94
63407;SHT31;49543;45.892;10.838;2023-09-30T23:23:55;20.32;74.74
63407;SHT31;49543;45.892;10.838;2023-09-30T23:26:21;20.34;74.67
63407;SHT31;49543;45.892;10.838;2023-09-30T23:28:46;20.35;75.02
63407;SHT31;49543;45.892;10.838;2023-09-30T23:31:14;20.34;74.95
63407;SHT31;49543;45.892;10.838;2023-09-30T23:33:40;20.28;75.04
63407;SHT31;49543;45.892;10.838;2023-09-30T23:36:09;20.25;74.35
63407;SHT31;49543;45.892;10.838;2023-09-30T23:38:37;20.24;74.87
63407;SHT31;49543;45.892;10.838;2023-09-30T23:41:02;20.24;75.28
63407;SHT31;49543;45.892;10.838;2023-09-30T23:43:31;20.21;75.37
63407;SHT31;49543;45.892;10.838;2023-09-30T23:45:57;20.14;75.22
63407;SHT31;49543;45.892;10.838;2023-09-30T23:48:22;20.17;75.27
63407;SHT31;49543;45.892;10.838;2023-09-30T23:50:49;20.14;75.38
63407;SHT31;49543;45.892;10.838;2023-09-30T23:53:21;20.13;75.18
63407;SHT31;49543;45.892;10.838;2023-09-30T23:55:47;20.11;75.29
63407;SHT31;49543;45.892;10.838;2023-09-30T23:58:13;20.13;75.86
